sensor_id;sensor_type;location;lat;lon;timestamp;P1;durP1;ratioP1;P2;durP2;ratioP2
61104;SDS011;46987;32.638;-115.438;2023-06-14T00:00:43;6.43;;;1.40;;
61104;SDS011;46987;32.638;-115.438;2023-06-14T00:03:10;3.15;;;0.93;;
61104;SDS011;46987;32.638;-115.438;2023-06-14T00:05:38;4.80;;;1.10;;
61104;SDS011;46987;32.638;-115.438;2023-06-14T00:08:07;9.20;;;1.40;;
61104;SDS011;46987;32.638;-115.438;2023-06-14T00:10:34;4.80;;;1.67;;
61104;SDS011;46987;32.638;-115.438;2023-06-14T00:13:01;6.70;;;1.33;;
61104;SDS011;46987;32.638;-115.438;2023-06-14T00:15:28;5.95;;;1.40;;
61104;SDS011;46987;32.638;-115.438;2023-06-14T00:17:58;10.10;;;1.77;;
61104;SDS011;46987;32.638;-115.438;2023-06-14T00:20:28;6.32;;;1.38;;
61104;SDS011;46987;32.638;-115.438;2023-06-14T00:22:54;5.97;;;1.70;;
61104;SDS011;46987;32.638;-115.438;2023-06-14T00:25:22;3.90;;;1.38;;
61104;SDS011;46987;32.638;-115.438;2023-06-14T00:27:48;4.78;;;1.58;;
61104;SDS011;46987;32.638;-115.438;2023-06-14T00:30:15;3.97;;;1.40;;
61104;SDS011;46987;32.638;-115.438;2023-06-14T00:32:42;4.07;;;1.20;;
61104;SDS011;46987;32.638;-115.438;2023-06-14T00:35:10;8.32;;;1.67;;
61104;SDS011;46987;32.638;-115.438;2023-06-14T00:37:37;5.03;;;1.70;;
61104;SDS011;46987;32.638;-115.438;2023-06-14T00:40:04;5.03;;;1.30;;
61104;SDS011;46987;32.638;-115.438;2023-06-14T00:42:31;5.88;;;1.50;;
61104;SDS011;46987;32.638;-115.438;2023-06-14T00:44:58;6.15;;;1.50;;
61104;SDS011;46987;32.638;-115.438;2023-06-14T00:47:25;4.70;;;1.35;;
61104;SDS011;46987;32.638;-115.438;2023-06-14T00:49:53;3.08;;;1.30;;
61104;SDS011;46987;32.638;-115.438;2023-06-14T00:52:22;3.92;;;1.35;;
61104;SDS011;46987;32.638;-115.438;2023-06-14T00:54:51;7.35;;;1.85;;
61104;SDS011;46987;32.638;-115.438;2023-06-14T00:57:17;6.25;;;1.83;;
61104;SDS011;46987;32.638;-115.438;2023-06-14T00:59:46;6.55;;;1.70;;
61104;SDS011;46987;32.638;-115.438;2023-06-14T01:02:13;4.43;;;1.67;;
61104;SDS011;46987;32.638;-115.438;2023-06-14T01:04:44;7.10;;;2.10;;
61104;SDS011;46987;32.638;-115.438;2023-06-14T01:07:18;5.65;;;1.85;;
61104;SDS011;46987;32.638;-115.438;2023-06-14T01:09:51;5.28;;;1.50;;
61104;SDS011;46987;32.638;-115.438;2023-06-14T01:12:24;3.80;;;1.15;;
61104;SDS011;46987;32.638;-115.438;2023-06-14T01:14:51;5.13;;;1.50;;
61104;SDS011;46987;32.638;-115.438;2023-06-14T01:17:20;4.57;;;1.60;;
61104;SDS011;46987;32.638;-115.438;2023-06-14T01:19:49;4.68;;;1.20;;
61104;SDS011;46987;32.638;-115.438;2023-06-14T01:22:24;6.40;;;1.55;;
61104;SDS011;46987;32.638;-115.438;2023-06-14T01:24:56;6.70;;;1.30;;
61104;SDS011;46987;32.638;-115.438;2023-06-14T01:27:24;5.25;;;1.60;;
61104;SDS011;46987;32.638;-115.438;2023-06-14T01:29:55;5.53;;;1.27;;
61104;SDS011;46987;32.638;-115.438;2023-06-14T01:32:25;9.43;;;1.80;;
61104;SDS011;46987;32.638;-115.438;2023-06-14T01:34:53;9.43;;;2.15;;
61104;SDS011;46987;32.638;-115.438;2023-06-14T01:37:19;5.45;;;1.30;;
61104;SDS011;46987;32.638;-115.438;2023-06-14T01:39:46;6.65;;;1.50;;
61104;SDS011;46987;32.638;-115.438;2023-06-14T01:42:15;6.00;;;1.55;;
61104;SDS011;46987;32.638;-115.438;2023-06-14T01:44:42;7.97;;;1.80;;
61104;SDS011;46987;32.638;-115.438;2023-06-14T01:47:10;6.82;;;1.38;;
61104;SDS011;46987;32.638;-115.438;2023-06-14T01:49:38;5.90;;;1.30;;
61104;SDS011;46987;32.638;-115.438;2023-06-14T01:52:06;5.13;;;1.60;;
61104;SDS011;46987;32.638;-115.438;2023-06-14T01:54:36;3.22;;;1.20;;
61104;SDS011;46987;32.638;-115.438;2023-06-14T01:57:08;5.70;;;1.77;;
61104;SDS011;46987;32.638;-115.438;2023-06-14T01:59:36;8.05;;;1.48;;
61104;SDS011;46987;32.638;-115.438;2023-06-14T02:02:03;3.85;;;1.27;;
61104;SDS011;46987;32.638;-115.438;2023-06-14T02:04:32;8.18;;;1.90;;
61104;SDS011;46987;32.638;-115.438;2023-06-14T02:06:58;5.88;;;1.60;;
61104;SDS011;46987;32.638;-115.438;2023-06-14T02:09:25;7.60;;;1.98;;
61104;SDS011;46987;32.638;-115.438;2023-06-14T02:11:54;4.28;;;1.55;;
61104;SDS011;46987;32.638;-115.438;2023-06-14T02:14:20;7.75;;;1.60;;
61104;SDS011;46987;32.638;-115.438;2023-06-14T02:16:49;7.28;;;1.75;;
61104;SDS011;46987;32.638;-115.438;2023-06-14T02:19:16;4.55;;;1.30;;
61104;SDS011;46987;32.638;-115.438;2023-06-14T02:21:43;10.80;;;2.65;;
61104;SDS011;46987;32.638;-115.438;2023-06-14T02:24:12;19.45;;;3.83;;
61104;SDS011;46987;32.638;-115.438;2023-06-14T02:26:39;9.57;;;2.47;;
61104;SDS011;46987;32.638;-115.438;2023-06-14T02:29:07;18.65;;;4.95;;
61104;SDS011;46987;32.638;-115.438;2023-06-14T02:31:39;17.92;;;4.50;;
61104;SDS011;46987;32.638;-115.438;2023-06-14T02:34:08;7.10;;;2.08;;
61104;SDS011;46987;32.638;-115.438;2023-06-14T02:36:35;9.93;;;2.40;;
61104;SDS011;46987;32.638;-115.438;2023-06-14T02:39:08;11.65;;;2.72;;
61104;SDS011;46987;32.638;-115.438;2023-06-14T02:41:37;6.80;;;1.73;;
61104;SDS011;46987;32.638;-115.438;2023-06-14T02:44:04;6.05;;;1.70;;
61104;SDS011;46987;32.638;-115.438;2023-06-14T02:46:32;7.78;;;1.90;;
61104;SDS011;46987;32.638;-115.438;2023-06-14T02:48:58;8.63;;;1.77;;
61104;SDS011;46987;32.638;-115.438;2023-06-14T02:51:27;7.13;;;1.63;;
61104;SDS011;46987;32.638;-115.438;2023-06-14T02:53:54;8.48;;;2.15;;
61104;SDS011;46987;32.638;-115.438;2023-06-14T02:56:21;7.20;;;1.80;;
61104;SDS011;46987;32.638;-115.438;2023-06-14T02:58:49;5.60;;;1.25;;
61104;SDS011;46987;32.638;-115.438;2023-06-14T03:01:17;7.57;;;1.67;;
61104;SDS011;46987;32.638;-115.438;2023-06-14T03:03:45;7.03;;;2.00;;
61104;SDS011;46987;32.638;-115.438;2023-06-14T03:06:12;8.75;;;2.50;;
61104;SDS011;46987;32.638;-115.438;2023-06-14T03:08:45;9.23;;;2.03;;
61104;SDS011;46987;32.638;-115.438;2023-06-14T03:11:16;7.75;;;2.20;;
61104;SDS011;46987;32.638;-115.438;2023-06-14T03:13:47;6.87;;;2.10;;
61104;SDS011;46987;32.638;-115.438;2023-06-14T03:16:14;14.65;;;2.90;;
61104;SDS011;46987;32.638;-115.438;2023-06-14T03:18:41;8.25;;;2.35;;
61104;SDS011;46987;32.638;-115.438;2023-06-14T03:21:08;5.40;;;2.20;;
61104;SDS011;46987;32.638;-115.438;2023-06-14T03:23:37;7.68;;;2.33;;
61104;SDS011;46987;32.638;-115.438;2023-06-14T03:26:05;7.45;;;1.95;;
61104;SDS011;46987;32.638;-115.438;2023-06-14T03:28:33;6.72;;;1.90;;
61104;SDS011;46987;32.638;-115.438;2023-06-14T03:30:59;5.97;;;2.42;;
61104;SDS011;46987;32.638;-115.438;2023-06-14T03:33:31;9.88;;;2.55;;
61104;SDS011;46987;32.638;-115.438;2023-06-14T03:35:58;10.07;;;2.88;;
61104;SDS011;46987;32.638;-115.438;2023-06-14T03:38:26;7.63;;;2.70;;
61104;SDS011;46987;32.638;-115.438;2023-06-14T03:40:53;8.85;;;3.45;;
61104;SDS011;46987;32.638;-115.438;2023-06-14T03:43:21;12.32;;;3.25;;
61104;SDS011;46987;32.638;-115.438;2023-06-14T03:45:48;12.65;;;3.05;;
61104;SDS011;46987;32.638;-115.438;2023-06-14T03:48:16;9.25;;;2.88;;
61104;SDS011;46987;32.638;-115.438;2023-06-14T03:50:43;12.18;;;2.58;;
61104;SDS011;46987;32.638;-115.438;2023-06-14T03:53:10;11.75;;;2.78;;
61104;SDS011;46987;32.638;-115.438;2023-06-14T03:55:40;11.70;;;3.35;;
61104;SDS011;46987;32.638;-115.438;2023-06-14T03:58:07;19.67;;;4.68;;
61104;SDS011;46987;32.638;-115.438;2023-06-14T04:00:38;16.52;;;3.85;;
61104;SDS011;46987;32.638;-115.438;2023-06-14T04:03:05;12.90;;;3.53;;
61104;SDS011;46987;32.638;-115.438;2023-06-14T04:05:32;13.93;;;4.18;;
61104;SDS011;46987;32.638;-115.438;2023-06-14T04:08:00;17.98;;;3.88;;
61104;SDS011;46987;32.638;-115.438;2023-06-14T04:10:27;13.00;;;3.42;;
61104;SDS011;46987;32.638;-115.438;2023-06-14T04:12:54;12.38;;;2.63;;
61104;SDS011;46987;32.638;-115.438;2023-06-14T04:15:21;9.85;;;2.70;;
61104;SDS011;46987;32.638;-115.438;2023-06-14T04:17:53;16.27;;;3.05;;
61104;SDS011;46987;32.638;-115.438;2023-06-14T04:20:24;10.57;;;2.70;;
61104;SDS011;46987;32.638;-115.438;2023-06-14T04:22:55;13.57;;;2.65;;
61104;SDS011;46987;32.638;-115.438;2023-06-14T04:25:23;10.82;;;3.30;;
61104;SDS011;46987;32.638;-115.438;2023-06-14T04:27:52;9.88;;;3.00;;
61104;SDS011;46987;32.638;-115.438;2023-06-14T04:30:21;8.70;;;2.72;;
61104;SDS011;46987;32.638;-115.438;2023-06-14T04:32:53;11.05;;;2.85;;
61104;SDS011;46987;32.638;-115.438;2023-06-14T04:35:22;10.88;;;2.60;;
61104;SDS011;46987;32.638;-115.438;2023-06-14T04:37:50;9.43;;;2.30;;
61104;SDS011;46987;32.638;-115.438;2023-06-14T04:40:18;8.65;;;2.30;;
61104;SDS011;46987;32.638;-115.438;2023-06-14T04:42:44;9.75;;;1.88;;
61104;SDS011;46987;32.638;-115.438;2023-06-14T04:45:15;8.30;;;2.10;;
61104;SDS011;46987;32.638;-115.438;2023-06-14T04:47:44;13.70;;;2.38;;
61104;SDS011;46987;32.638;-115.438;2023-06-14T04:50:12;9.02;;;2.50;;
61104;SDS011;46987;32.638;-115.438;2023-06-14T04:52:40;7.45;;;2.38;;
61104;SDS011;46987;32.638;-115.438;2023-06-14T04:55:08;9.68;;;2.78;;
61104;SDS011;46987;32.638;-115.438;2023-06-14T04:57:36;8.43;;;2.60;;
61104;SDS011;46987;32.638;-115.438;2023-06-14T05:00:05;11.82;;;3.35;;
61104;SDS011;46987;32.638;-115.438;2023-06-14T05:02:33;15.35;;;3.35;;
61104;SDS011;46987;32.638;-115.438;2023-06-14T05:05:01;12.85;;;2.72;;
61104;SDS011;46987;32.638;-115.438;2023-06-14T05:07:33;13.63;;;2.63;;
61104;SDS011;46987;32.638;-115.438;2023-06-14T05:10:03;9.00;;;2.88;;
61104;SDS011;46987;32.638;-115.438;2023-06-14T05:12:31;8.95;;;2.50;;
61104;SDS011;46987;32.638;-115.438;2023-06-14T05:14:59;6.68;;;2.60;;
61104;SDS011;46987;32.638;-115.438;2023-06-14T05:17:26;7.13;;;2.30;;
61104;SDS011;46987;32.638;-115.438;2023-06-14T05:19:54;6.70;;;2.15;;
61104;SDS011;46987;32.638;-115.438;2023-06-14T05:22:22;6.38;;;2.00;;
61104;SDS011;46987;32.638;-115.438;2023-06-14T05:24:50;5.63;;;1.85;;
61104;SDS011;46987;32.638;-115.438;2023-06-14T05:27:17;10.88;;;2.90;;
61104;SDS011;46987;32.638;-115.438;2023-06-14T05:29:43;7.13;;;1.77;;
61104;SDS011;46987;32.638;-115.438;2023-06-14T05:32:10;6.20;;;1.45;;
61104;SDS011;46987;32.638;-115.438;2023-06-14T05:34:37;4.70;;;1.60;;
61104;SDS011;46987;32.638;-115.438;2023-06-14T05:37:03;4.47;;;1.63;;
61104;SDS011;46987;32.638;-115.438;2023-06-14T05:39:30;5.00;;;1.30;;
61104;SDS011;46987;32.638;-115.438;2023-06-14T05:41:59;11.68;;;2.08;;
61104;SDS011;46987;32.638;-115.438;2023-06-14T05:44:25;7.78;;;1.63;;
61104;SDS011;46987;32.638;-115.438;2023-06-14T05:46:52;5.72;;;1.42;;
61104;SDS011;46987;32.638;-115.438;2023-06-14T05:49:19;8.85;;;1.90;;
61104;SDS011;46987;32.638;-115.438;2023-06-14T05:51:46;5.80;;;1.50;;
61104;SDS011;46987;32.638;-115.438;2023-06-14T05:54:12;5.90;;;1.80;;
61104;SDS011;46987;32.638;-115.438;2023-06-14T05:56:39;3.85;;;1.15;;
61104;SDS011;46987;32.638;-115.438;2023-06-14T05:59:07;4.72;;;1.35;;
61104;SDS011;46987;32.638;-115.438;2023-06-14T06:01:34;5.28;;;1.40;;
61104;SDS011;46987;32.638;-115.438;2023-06-14T06:04:02;4.45;;;1.50;;
61104;SDS011;46987;32.638;-115.438;2023-06-14T06:06:31;4.00;;;1.20;;
61104;SDS011;46987;32.638;-115.438;2023-06-14T06:08:58;5.50;;;1.70;;
61104;SDS011;46987;32.638;-115.438;2023-06-14T06:11:25;6.57;;;1.60;;
61104;SDS011;46987;32.638;-115.438;2023-06-14T06:13:51;4.90;;;1.42;;
61104;SDS011;46987;32.638;-115.438;2023-06-14T06:16:21;6.68;;;1.65;;
61104;SDS011;46987;32.638;-115.438;2023-06-14T06:18:48;5.43;;;1.50;;
61104;SDS011;46987;32.638;-115.438;2023-06-14T06:21:14;6.47;;;2.00;;
61104;SDS011;46987;32.638;-115.438;2023-06-14T06:23:43;5.38;;;1.60;;
61104;SDS011;46987;32.638;-115.438;2023-06-14T06:26:11;7.47;;;1.77;;
61104;SDS011;46987;32.638;-115.438;2023-06-14T06:28:38;5.95;;;1.67;;
61104;SDS011;46987;32.638;-115.438;2023-06-14T06:31:05;7.63;;;1.77;;
61104;SDS011;46987;32.638;-115.438;2023-06-14T06:33:34;4.38;;;1.35;;
61104;SDS011;46987;32.638;-115.438;2023-06-14T06:36:01;5.35;;;1.73;;
61104;SDS011;46987;32.638;-115.438;2023-06-14T06:38:28;4.28;;;1.75;;
61104;SDS011;46987;32.638;-115.438;2023-06-14T06:40:55;6.85;;;1.55;;
61104;SDS011;46987;32.638;-115.438;2023-06-14T06:43:22;6.78;;;1.50;;
61104;SDS011;46987;32.638;-115.438;2023-06-14T06:45:49;4.93;;;1.50;;
61104;SDS011;46987;32.638;-115.438;2023-06-14T06:48:16;6.15;;;1.30;;
61104;SDS011;46987;32.638;-115.438;2023-06-14T06:50:44;4.85;;;1.45;;
61104;SDS011;46987;32.638;-115.438;2023-06-14T06:53:11;4.93;;;1.30;;
61104;SDS011;46987;32.638;-115.438;2023-06-14T06:55:38;3.70;;;1.38;;
61104;SDS011;46987;32.638;-115.438;2023-06-14T06:58:04;3.92;;;1.20;;
61104;SDS011;46987;32.638;-115.438;2023-06-14T07:00:31;5.28;;;1.65;;
61104;SDS011;46987;32.638;-115.438;2023-06-14T07:02:58;4.35;;;1.52;;
61104;SDS011;46987;32.638;-115.438;2023-06-14T07:05:25;3.55;;;0.93;;
61104;SDS011;46987;32.638;-115.438;2023-06-14T07:07:53;5.13;;;1.52;;
61104;SDS011;46987;32.638;-115.438;2023-06-14T07:10:20;4.43;;;1.20;;
61104;SDS011;46987;32.638;-115.438;2023-06-14T07:12:47;5.25;;;1.25;;
61104;SDS011;46987;32.638;-115.438;2023-06-14T07:15:13;3.58;;;1.42;;
61104;SDS011;46987;32.638;-115.438;2023-06-14T07:17:40;3.42;;;0.95;;
61104;SDS011;46987;32.638;-115.438;2023-06-14T07:20:08;3.35;;;1.00;;
61104;SDS011;46987;32.638;-115.438;2023-06-14T07:22:38;4.15;;;1.10;;
61104;SDS011;46987;32.638;-115.438;2023-06-14T07:25:08;4.45;;;1.30;;
61104;SDS011;46987;32.638;-115.438;2023-06-14T07:27:35;3.90;;;1.40;;
61104;SDS011;46987;32.638;-115.438;2023-06-14T07:30:02;4.43;;;1.27;;
61104;SDS011;46987;32.638;-115.438;2023-06-14T07:32:29;2.83;;;0.90;;
61104;SDS011;46987;32.638;-115.438;2023-06-14T07:34:55;4.00;;;1.10;;
61104;SDS011;46987;32.638;-115.438;2023-06-14T07:37:22;3.53;;;1.00;;
61104;SDS011;46987;32.638;-115.438;2023-06-14T07:39:49;3.85;;;1.30;;
61104;SDS011;46987;32.638;-115.438;2023-06-14T07:42:17;4.25;;;1.20;;
61104;SDS011;46987;32.638;-115.438;2023-06-14T07:44:44;3.05;;;1.17;;
61104;SDS011;46987;32.638;-115.438;2023-06-14T07:47:11;4.20;;;1.10;;
61104;SDS011;46987;32.638;-115.438;2023-06-14T07:49:37;4.72;;;1.63;;
61104;SDS011;46987;32.638;-115.438;2023-06-14T07:52:04;3.88;;;1.17;;
61104;SDS011;46987;32.638;-115.438;2023-06-14T07:54:31;4.38;;;1.45;;
61104;SDS011;46987;32.638;-115.438;2023-06-14T07:56:58;2.78;;;1.00;;
61104;SDS011;46987;32.638;-115.438;2023-06-14T07:59:28;3.78;;;1.33;;
61104;SDS011;46987;32.638;-115.438;2023-06-14T08:01:55;4.82;;;1.23;;
61104;SDS011;46987;32.638;-115.438;2023-06-14T08:04:21;5.65;;;1.20;;
61104;SDS011;46987;32.638;-115.438;2023-06-14T08:06:48;3.33;;;1.38;;
61104;SDS011;46987;32.638;-115.438;2023-06-14T08:09:15;3.67;;;1.30;;
61104;SDS011;46987;32.638;-115.438;2023-06-14T08:11:42;4.25;;;1.20;;
61104;SDS011;46987;32.638;-115.438;2023-06-14T08:14:08;4.68;;;1.42;;
61104;SDS011;46987;32.638;-115.438;2023-06-14T08:16:37;5.28;;;1.30;;
61104;SDS011;46987;32.638;-115.438;2023-06-14T08:19:04;7.60;;;1.77;;
61104;SDS011;46987;32.638;-115.438;2023-06-14T08:21:30;6.13;;;1.63;;
61104;SDS011;46987;32.638;-115.438;2023-06-14T08:23:59;4.57;;;1.50;;
61104;SDS011;46987;32.638;-115.438;2023-06-14T08:26:26;3.83;;;1.42;;
61104;SDS011;46987;32.638;-115.438;2023-06-14T08:28:56;5.18;;;1.48;;
61104;SDS011;46987;32.638;-115.438;2023-06-14T08:31:22;3.72;;;1.35;;
61104;SDS011;46987;32.638;-115.438;2023-06-14T08:33:51;4.50;;;1.60;;
61104;SDS011;46987;32.638;-115.438;2023-06-14T08:36:18;6.00;;;1.50;;
61104;SDS011;46987;32.638;-115.438;2023-06-14T08:38:45;4.72;;;1.30;;
61104;SDS011;46987;32.638;-115.438;2023-06-14T08:41:12;4.20;;;1.40;;
61104;SDS011;46987;32.638;-115.438;2023-06-14T08:43:43;6.15;;;1.58;;
61104;SDS011;46987;32.638;-115.438;2023-06-14T08:46:10;6.15;;;1.50;;
61104;SDS011;46987;32.638;-115.438;2023-06-14T08:48:38;5.63;;;1.90;;
61104;SDS011;46987;32.638;-115.438;2023-06-14T08:51:07;4.10;;;1.50;;
61104;SDS011;46987;32.638;-115.438;2023-06-14T08:53:34;4.10;;;1.55;;
61104;SDS011;46987;32.638;-115.438;2023-06-14T08:56:08;6.82;;;1.60;;
61104;SDS011;46987;32.638;-115.438;2023-06-14T08:58:40;3.42;;;1.27;;
61104;SDS011;46987;32.638;-115.438;2023-06-14T09:01:11;3.38;;;1.20;;
61104;SDS011;46987;32.638;-115.438;2023-06-14T09:03:43;3.92;;;1.15;;
61104;SDS011;46987;32.638;-115.438;2023-06-14T09:06:12;6.72;;;1.20;;
61104;SDS011;46987;32.638;-115.438;2023-06-14T09:08:42;3.90;;;1.20;;
61104;SDS011;46987;32.638;-115.438;2023-06-14T09:11:10;4.60;;;1.40;;
61104;SDS011;46987;32.638;-115.438;2023-06-14T09:13:37;3.33;;;1.23;;
61104;SDS011;46987;32.638;-115.438;2023-06-14T09:16:04;4.97;;;1.55;;
61104;SDS011;46987;32.638;-115.438;2023-06-14T09:18:37;4.53;;;1.48;;
61104;SDS011;46987;32.638;-115.438;2023-06-14T09:21:05;4.95;;;1.35;;
61104;SDS011;46987;32.638;-115.438;2023-06-14T09:23:35;8.02;;;1.83;;
61104;SDS011;46987;32.638;-115.438;2023-06-14T09:26:06;5.45;;;1.50;;
61104;SDS011;46987;32.638;-115.438;2023-06-14T09:28:33;5.72;;;1.50;;
61104;SDS011;46987;32.638;-115.438;2023-06-14T09:31:00;5.60;;;1.40;;
61104;SDS011;46987;32.638;-115.438;2023-06-14T09:33:27;4.65;;;1.50;;
61104;SDS011;46987;32.638;-115.438;2023-06-14T09:35:54;5.80;;;1.35;;
61104;SDS011;46987;32.638;-115.438;2023-06-14T09:38:21;5.32;;;1.50;;
61104;SDS011;46987;32.638;-115.438;2023-06-14T09:40:49;6.28;;;1.45;;
61104;SDS011;46987;32.638;-115.438;2023-06-14T09:43:16;5.38;;;1.70;;
61104;SDS011;46987;32.638;-115.438;2023-06-14T09:45:44;5.53;;;1.83;;
61104;SDS011;46987;32.638;-115.438;2023-06-14T09:48:14;5.35;;;1.45;;
61104;SDS011;46987;32.638;-115.438;2023-06-14T09:50:44;4.47;;;1.50;;
61104;SDS011;46987;32.638;-115.438;2023-06-14T09:53:12;6.90;;;1.65;;
61104;SDS011;46987;32.638;-115.438;2023-06-14T09:55:40;8.10;;;1.83;;
61104;SDS011;46987;32.638;-115.438;2023-06-14T09:58:09;7.97;;;1.95;;
61104;SDS011;46987;32.638;-115.438;2023-06-14T10:00:36;5.15;;;1.42;;
61104;SDS011;46987;32.638;-115.438;2023-06-14T10:03:05;4.30;;;1.35;;
61104;SDS011;46987;32.638;-115.438;2023-06-14T10:05:32;10.27;;;1.77;;
61104;SDS011;46987;32.638;-115.438;2023-06-14T10:08:03;6.15;;;1.88;;
61104;SDS011;46987;32.638;-115.438;2023-06-14T10:10:30;5.45;;;1.80;;
61104;SDS011;46987;32.638;-115.438;2023-06-14T10:12:57;6.30;;;1.60;;
61104;SDS011;46987;32.638;-115.438;2023-06-14T10:15:28;7.47;;;1.73;;
61104;SDS011;46987;32.638;-115.438;2023-06-14T10:17:58;3.95;;;1.33;;
61104;SDS011;46987;32.638;-115.438;2023-06-14T10:20:27;9.65;;;1.80;;
61104;SDS011;46987;32.638;-115.438;2023-06-14T10:22:56;4.60;;;2.03;;
61104;SDS011;46987;32.638;-115.438;2023-06-14T10:25:28;7.45;;;2.00;;
61104;SDS011;46987;32.638;-115.438;2023-06-14T10:28:08;6.90;;;2.33;;
61104;SDS011;46987;32.638;-115.438;2023-06-14T10:33:25;7.22;;;3.47;;
61104;SDS011;46987;32.638;-115.438;2023-06-14T10:36:01;7.80;;;3.45;;
61104;SDS011;46987;32.638;-115.438;2023-06-14T10:38:33;9.20;;;4.32;;
61104;SDS011;46987;32.638;-115.438;2023-06-14T10:41:01;9.98;;;4.57;;
61104;SDS011;46987;32.638;-115.438;2023-06-14T10:43:28;8.48;;;4.15;;
61104;SDS011;46987;32.638;-115.438;2023-06-14T10:46:14;7.32;;;4.15;;
61104;SDS011;46987;32.638;-115.438;2023-06-14T10:48:44;8.38;;;4.18;;
61104;SDS011;46987;32.638;-115.438;2023-06-14T10:51:17;7.45;;;4.10;;
61104;SDS011;46987;32.638;-115.438;2023-06-14T10:53:47;7.28;;;3.58;;
61104;SDS011;46987;32.638;-115.438;2023-06-14T10:56:24;9.02;;;3.78;;
61104;SDS011;46987;32.638;-115.438;2023-06-14T10:58:52;8.77;;;3.83;;
61104;SDS011;46987;32.638;-115.438;2023-06-14T11:01:19;7.45;;;3.40;;
61104;SDS011;46987;32.638;-115.438;2023-06-14T11:03:52;7.25;;;3.20;;
61104;SDS011;46987;32.638;-115.438;2023-06-14T11:06:21;5.55;;;2.72;;
61104;SDS011;46987;32.638;-115.438;2023-06-14T11:11:34;8.75;;;3.22;;
61104;SDS011;46987;32.638;-115.438;2023-06-14T11:14:01;8.75;;;3.67;;
61104;SDS011;46987;32.638;-115.438;2023-06-14T11:16:29;7.60;;;2.88;;
61104;SDS011;46987;32.638;-115.438;2023-06-14T11:18:57;10.63;;;3.58;;
61104;SDS011;46987;32.638;-115.438;2023-06-14T11:21:24;8.00;;;3.70;;
61104;SDS011;46987;32.638;-115.438;2023-06-14T11:23:52;10.40;;;4.13;;
61104;SDS011;46987;32.638;-115.438;2023-06-14T11:26:26;10.02;;;4.38;;
61104;SDS011;46987;32.638;-115.438;2023-06-14T11:28:57;7.63;;;3.95;;
61104;SDS011;46987;32.638;-115.438;2023-06-14T11:31:24;10.13;;;4.10;;
61104;SDS011;46987;32.638;-115.438;2023-06-14T11:33:51;9.05;;;3.90;;
61104;SDS011;46987;32.638;-115.438;2023-06-14T11:36:21;10.20;;;3.95;;
61104;SDS011;46987;32.638;-115.438;2023-06-14T11:38:48;7.82;;;4.20;;
61104;SDS011;46987;32.638;-115.438;2023-06-14T11:41:15;12.93;;;5.45;;
61104;SDS011;46987;32.638;-115.438;2023-06-14T11:43:41;10.52;;;4.88;;
61104;SDS011;46987;32.638;-115.438;2023-06-14T11:46:12;9.40;;;4.22;;
61104;SDS011;46987;32.638;-115.438;2023-06-14T11:48:40;14.65;;;3.63;;
61104;SDS011;46987;32.638;-115.438;2023-06-14T11:51:07;9.75;;;3.47;;
61104;SDS011;46987;32.638;-115.438;2023-06-14T11:53:36;11.73;;;3.55;;
61104;SDS011;46987;32.638;-115.438;2023-06-14T11:56:02;11.32;;;5.30;;
61104;SDS011;46987;32.638;-115.438;2023-06-14T11:58:29;22.88;;;6.90;;
61104;SDS011;46987;32.638;-115.438;2023-06-14T12:00:56;15.40;;;6.68;;
61104;SDS011;46987;32.638;-115.438;2023-06-14T12:03:24;19.98;;;8.13;;
61104;SDS011;46987;32.638;-115.438;2023-06-14T12:06:07;21.33;;;8.77;;
61104;SDS011;46987;32.638;-115.438;2023-06-14T12:08:36;22.92;;;9.57;;
61104;SDS011;46987;32.638;-115.438;2023-06-14T12:11:06;21.67;;;8.95;;
61104;SDS011;46987;32.638;-115.438;2023-06-14T12:13:34;25.55;;;10.23;;
61104;SDS011;46987;32.638;-115.438;2023-06-14T12:16:04;21.52;;;10.32;;
61104;SDS011;46987;32.638;-115.438;2023-06-14T12:18:31;22.52;;;9.73;;
61104;SDS011;46987;32.638;-115.438;2023-06-14T12:21:00;26.98;;;10.93;;
61104;SDS011;46987;32.638;-115.438;2023-06-14T12:23:44;24.73;;;10.55;;
61104;SDS011;46987;32.638;-115.438;2023-06-14T12:26:14;29.05;;;11.30;;
61104;SDS011;46987;32.638;-115.438;2023-06-14T12:28:41;22.50;;;10.52;;
61104;SDS011;46987;32.638;-115.438;2023-06-14T12:31:09;28.35;;;10.82;;
61104;SDS011;46987;32.638;-115.438;2023-06-14T12:33:36;27.95;;;10.80;;
61104;SDS011;46987;32.638;-115.438;2023-06-14T12:36:03;23.67;;;10.20;;
61104;SDS011;46987;32.638;-115.438;2023-06-14T12:38:30;25.48;;;9.95;;
61104;SDS011;46987;32.638;-115.438;2023-06-14T12:40:58;27.13;;;10.25;;
61104;SDS011;46987;32.638;-115.438;2023-06-14T12:43:25;31.33;;;11.65;;
61104;SDS011;46987;32.638;-115.438;2023-06-14T12:45:52;24.35;;;10.50;;
61104;SDS011;46987;32.638;-115.438;2023-06-14T12:48:19;24.23;;;11.23;;
61104;SDS011;46987;32.638;-115.438;2023-06-14T12:50:46;27.35;;;12.10;;
61104;SDS011;46987;32.638;-115.438;2023-06-14T12:53:13;29.08;;;12.95;;
61104;SDS011;46987;32.638;-115.438;2023-06-14T12:55:39;27.13;;;10.73;;
61104;SDS011;46987;32.638;-115.438;2023-06-14T12:58:08;31.63;;;11.25;;
61104;SDS011;46987;32.638;-115.438;2023-06-14T13:00:35;25.95;;;11.65;;
61104;SDS011;46987;32.638;-115.438;2023-06-14T13:03:01;33.20;;;11.35;;
61104;SDS011;46987;32.638;-115.438;2023-06-14T13:05:28;28.70;;;12.30;;
61104;SDS011;46987;32.638;-115.438;2023-06-14T13:07:58;27.58;;;12.77;;
61104;SDS011;46987;32.638;-115.438;2023-06-14T13:10:25;32.10;;;10.77;;
61104;SDS011;46987;32.638;-115.438;2023-06-14T13:12:53;17.85;;;9.25;;
61104;SDS011;46987;32.638;-115.438;2023-06-14T13:15:21;16.23;;;7.15;;
61104;SDS011;46987;32.638;-115.438;2023-06-14T13:17:48;19.30;;;8.05;;
61104;SDS011;46987;32.638;-115.438;2023-06-14T13:20:15;13.25;;;5.10;;
61104;SDS011;46987;32.638;-115.438;2023-06-14T13:22:42;17.98;;;6.20;;
61104;SDS011;46987;32.638;-115.438;2023-06-14T13:25:11;15.23;;;4.75;;
61104;SDS011;46987;32.638;-115.438;2023-06-14T13:27:37;15.18;;;4.68;;
61104;SDS011;46987;32.638;-115.438;2023-06-14T13:30:05;18.02;;;5.22;;
61104;SDS011;46987;32.638;-115.438;2023-06-14T13:32:34;19.55;;;5.30;;
61104;SDS011;46987;32.638;-115.438;2023-06-14T13:35:01;24.55;;;5.47;;
61104;SDS011;46987;32.638;-115.438;2023-06-14T13:37:27;20.63;;;6.82;;
61104;SDS011;46987;32.638;-115.438;2023-06-14T13:39:54;28.52;;;7.50;;
61104;SDS011;46987;32.638;-115.438;2023-06-14T13:42:21;20.55;;;7.30;;
61104;SDS011;46987;32.638;-115.438;2023-06-14T13:44:48;20.98;;;6.95;;
61104;SDS011;46987;32.638;-115.438;2023-06-14T13:47:15;36.20;;;7.72;;
61104;SDS011;46987;32.638;-115.438;2023-06-14T13:49:43;19.33;;;6.57;;
61104;SDS011;46987;32.638;-115.438;2023-06-14T13:52:10;24.35;;;6.28;;
61104;SDS011;46987;32.638;-115.438;2023-06-14T13:54:37;15.23;;;5.22;;
61104;SDS011;46987;32.638;-115.438;2023-06-14T13:57:04;17.55;;;5.68;;
61104;SDS011;46987;32.638;-115.438;2023-06-14T13:59:31;27.10;;;6.72;;
61104;SDS011;46987;32.638;-115.438;2023-06-14T14:01:58;21.70;;;7.05;;
61104;SDS011;46987;32.638;-115.438;2023-06-14T14:04:24;16.90;;;6.13;;
61104;SDS011;46987;32.638;-115.438;2023-06-14T14:06:53;20.27;;;7.20;;
61104;SDS011;46987;32.638;-115.438;2023-06-14T14:09:19;21.08;;;7.45;;
61104;SDS011;46987;32.638;-115.438;2023-06-14T14:11:46;18.52;;;7.05;;
61104;SDS011;46987;32.638;-115.438;2023-06-14T14:14:15;26.85;;;8.30;;